Time,TemperatureF,DewpointF,PressureIn,WindDirection,WindDirectionDegrees,WindSpeedMPH,WindSpeedGustMPH,Humidity,HourlyPrecipIn,Conditions,Clouds,dailyrainin,SoftwareType,DateUTC
2013-02-03 00:02:00,39.0,9.0,-100.00,WSW,240,7.0,11.0,28,0.00,,,-99.99,,2013-02-03 00:02:00,
2013-02-03 00:11:00,38.0,9.0,-100.00,WSW,248,8.0,12.0,31,0.00,,,-99.99,,2013-02-03 00:11:00,
2013-02-03 00:21:00,35.0,10.0,-100.00,WNW,292,11.0,17.0,34,0.00,,,-99.99,,2013-02-03 00:21:00,
2013-02-03 00:32:00,33.0,11.0,-100.00,WNW,284,11.0,15.0,38,0.00,,,-99.99,,2013-02-03 00:32:00,
2013-02-03 00:41:00,33.0,10.0,-100.00,West,281,9.0,12.0,39,0.00,,,-99.99,,2013-02-03 00:41:00,
2013-02-03 00:51:00,32.0,10.0,-100.00,West,265,6.0,12.0,38,0.00,,,-99.99,,2013-02-03 00:51:00,
2013-02-03 01:02:00,34.0,9.0,-100.00,WSW,244,14.0,21.0,35,0.00,,,-99.99,,2013-02-03 01:02:00,
2013-02-03 01:11:00,33.0,10.0,-100.00,WSW,237,12.0,16.0,39,0.00,,,-99.99,,2013-02-03 01:11:00,
2013-02-03 01:21:00,33.0,9.0,-100.00,WSW,248,8.0,12.0,36,0.00,,,-99.99,,2013-02-03 01:21:00,
2013-02-03 01:32:00,33.0,8.0,-100.00,WSW,247,6.0,9.0,36,0.00,,,-99.99,,2013-02-03 01:32:00,
2013-02-03 01:42:00,31.0,10.0,-100.00,West,260,5.0,9.0,40,0.00,,,-99.99,,2013-02-03 01:42:00,
2013-02-03 01:52:00,29.0,10.0,-100.00,WNW,287,1.0,4.0,44,0.00,,,-99.99,,2013-02-03 01:52:00,
2013-02-03 02:01:00,29.0,11.0,-100.00,ESE,106,3.0,8.0,48,0.00,,,-99.99,,2013-02-03 02:01:00,
2013-02-03 02:11:00,28.0,11.0,-100.00,ESE,121,6.0,9.0,48,0.00,,,-99.99,,2013-02-03 02:11:00,
2013-02-03 02:21:00,27.0,10.0,-100.00,NE,37,2.0,5.0,49,0.00,,,-99.99,,2013-02-03 02:21:00,
2013-02-03 02:32:00,27.0,10.0,-100.00,NE,38,2.0,7.0,49,0.00,,,-99.99,,2013-02-03 02:32:00,
2013-02-03 02:41:00,26.0,11.0,-100.00,ENE,76,5.0,7.0,52,0.00,,,-99.99,,2013-02-03 02:41:00,
2013-02-03 02:52:00,26.0,11.0,-100.00,ESE,104,2.0,6.0,54,0.00,,,-99.99,,2013-02-03 02:52:00,
2013-02-03 03:02:00,26.0,11.0,-100.00,North,360,1.0,4.0,53,0.00,,,-99.99,,2013-02-03 03:02:00,
2013-02-03 03:11:00,26.0,12.0,-100.00,West,263,2.0,8.0,56,0.00,,,-99.99,,2013-02-03 03:11:00,
2013-02-03 03:21:00,27.0,12.0,-100.00,NNE,27,2.0,7.0,53,0.00,,,-99.99,,2013-02-03 03:21:00,
2013-02-03 03:31:00,29.0,12.0,-100.00,East,90,3.0,7.0,49,0.00,,,-99.99,,2013-02-03 03:31:00,
2013-02-03 03:41:00,25.0,12.0,-100.00,NE,54,4.0,8.0,57,0.00,,,-99.99,,2013-02-03 03:41:00,
2013-02-03 03:51:00,29.0,12.0,-100.00,ENE,78,4.0,12.0,48,0.00,,,-99.99,,2013-02-03 03:51:00,
2013-02-03 04:01:00,24.0,11.0,-100.00,East,90,4.0,8.0,57,0.00,,,-99.99,,2013-02-03 04:01:00,
2013-02-03 04:11:00,29.0,12.0,-100.00,SE,143,6.0,13.0,47,0.00,,,-99.99,,2013-02-03 04:11:00,
2013-02-03 04:21:00,28.0,13.0,-100.00,South,189,10.0,17.0,51,0.00,,,-99.99,,2013-02-03 04:21:00,
2013-02-03 04:31:00,26.0,12.0,-100.00,SW,216,4.0,11.0,54,0.00,,,-99.99,,2013-02-03 04:31:00,
2013-02-03 04:42:00,26.0,12.0,-100.00,SW,220,4.0,11.0,55,0.00,,,-99.99,,2013-02-03 04:42:00,
2013-02-03 04:51:00,26.0,11.0,-100.00,West,271,5.0,7.0,53,0.00,,,-99.99,,2013-02-03 04:51:00,
2013-02-03 05:03:00,28.0,10.0,-100.00,WSW,244,6.0,11.0,47,0.00,,,-99.99,,2013-02-03 05:03:00,
2013-02-03 05:11:00,28.0,10.0,-100.00,SSW,208,5.0,11.0,46,0.00,,,-99.99,,2013-02-03 05:11:00,
2013-02-03 05:22:00,24.0,10.0,-100.00,NNW,336,4.0,10.0,55,0.00,,,-99.99,,2013-02-03 05:22:00,
2013-02-03 05:32:00,27.0,10.0,-100.00,WSW,240,4.0,14.0,48,0.00,,,-99.99,,2013-02-03 05:32:00,
2013-02-03 05:41:00,30.0,8.0,-100.00,SSW,208,16.0,24.0,39,0.00,,,-99.99,,2013-02-03 05:41:00,
2013-02-03 05:52:00,29.0,9.0,-100.00,South,191,18.0,26.0,44,0.00,,,-99.99,,2013-02-03 05:52:00,
2013-02-03 06:02:00,28.0,10.0,-100.00,SSW,203,17.0,22.0,46,0.00,,,-99.99,,2013-02-03 06:02:00,
2013-02-03 06:11:00,28.0,9.0,-100.00,SSW,205,17.0,21.0,44,0.00,,,-99.99,,2013-02-03 06:11:00,
2013-02-03 06:21:00,28.0,9.0,-100.00,SSW,203,18.0,26.0,43,0.00,,,-99.99,,2013-02-03 06:21:00,
2013-02-03 06:32:00,27.0,9.0,-100.00,SSW,203,17.0,24.0,46,0.00,,,-99.99,,2013-02-03 06:32:00,
2013-02-03 06:41:00,28.0,9.0,-100.00,SSW,208,15.0,18.0,44,0.00,,,-99.99,,2013-02-03 06:41:00,
2013-02-03 06:52:00,29.0,8.0,-100.00,SSW,206,17.0,21.0,41,0.00,,,-99.99,,2013-02-03 06:52:00,
2013-02-03 07:01:00,30.0,7.0,-100.00,SSW,209,14.0,20.0,37,0.00,,,-99.99,,2013-02-03 07:01:00,
2013-02-03 07:11:00,30.0,8.0,-100.00,SSW,200,12.0,18.0,38,0.00,,,-99.99,,2013-02-03 07:11:00,
2013-02-03 07:21:00,30.0,7.0,-100.00,SSW,196,18.0,24.0,37,0.00,,,-99.99,,2013-02-03 07:21:00,
2013-02-03 07:31:00,31.0,7.0,-100.00,SSW,199,17.0,22.0,35,0.00,,,-99.99,,2013-02-03 07:31:00,
2013-02-03 07:41:00,30.0,6.0,-100.00,SSW,199,15.0,19.0,35,0.00,,,-99.99,,2013-02-03 07:41:00,
2013-02-03 07:52:00,31.0,6.0,-100.00,SSW,213,10.0,17.0,34,0.00,,,-99.99,,2013-02-03 07:52:00,
2013-02-03 08:01:00,31.0,6.0,-100.00,SSE,151,9.0,16.0,35,0.00,,,-99.99,,2013-02-03 08:01:00,
2013-02-03 08:11:00,30.0,8.0,-100.00,SE,144,7.0,13.0,39,0.00,,,-99.99,,2013-02-03 08:11:00,
2013-02-03 08:22:00,29.0,7.0,-100.00,SSE,168,9.0,16.0,38,0.00,,,-99.99,,2013-02-03 08:22:00,
2013-02-03 08:32:00,26.0,8.0,-100.00,ESE,102,6.0,14.0,44,0.00,,,-99.99,,2013-02-03 08:32:00,
2013-02-03 08:41:00,24.0,8.0,-100.00,ENE,75,4.0,7.0,51,0.00,,,-99.99,,2013-02-03 08:41:00,
2013-02-03 08:52:00,24.0,8.0,-100.00,NE,49,2.0,6.0,49,0.00,,,-99.99,,2013-02-03 08:52:00,
2013-02-03 09:02:00,26.0,7.0,-100.00,NE,49,2.0,4.0,46,0.00,,,-99.99,,2013-02-03 09:02:00,
2013-02-03 09:11:00,26.0,7.0,-100.00,NNE,17,1.0,4.0,45,0.00,,,-99.99,,2013-02-03 09:11:00,
2013-02-03 09:21:00,24.0,7.0,-100.00,ENE,71,2.0,6.0,48,0.00,,,-99.99,,2013-02-03 09:21:00,
2013-02-03 09:31:00,25.0,8.0,-100.00,ESE,109,3.0,7.0,47,0.00,,,-99.99,,2013-02-03 09:31:00,
2013-02-03 09:41:00,24.0,7.0,-100.00,East,88,2.0,6.0,49,0.00,,,-99.99,,2013-02-03 09:41:00,
2013-02-03 09:51:00,21.0,8.0,-100.00,NE,41,2.0,4.0,58,0.00,,,-99.99,,2013-02-03 09:51:00,
2013-02-03 10:01:00,22.0,8.0,-100.00,NE,45,3.0,4.0,54,0.00,,,-99.99,,2013-02-03 10:01:00,
2013-02-03 10:11:00,22.0,8.0,-100.00,NNE,14,4.0,10.0,55,0.00,,,-99.99,,2013-02-03 10:11:00,
2013-02-03 10:21:00,22.0,8.0,-100.00,NE,34,2.0,4.0,56,0.00,,,-99.99,,2013-02-03 10:21:00,
2013-02-03 10:31:00,23.0,8.0,-100.00,North,6,2.0,6.0,53,0.00,,,-99.99,,2013-02-03 10:31:00,
2013-02-03 10:42:00,22.0,8.0,-100.00,ENE,58,2.0,4.0,56,0.00,,,-99.99,,2013-02-03 10:42:00,
2013-02-03 10:52:00,22.0,8.0,-100.00,ENE,75,3.0,9.0,55,0.00,,,-99.99,,2013-02-03 10:52:00,
2013-02-03 11:02:00,20.0,8.0,-100.00,ENE,68,3.0,6.0,58,0.00,,,-99.99,,2013-02-03 11:02:00,
2013-02-03 11:11:00,22.0,8.0,-100.00,ENE,73,3.0,6.0,55,0.00,,,-99.99,,2013-02-03 11:11:00,
2013-02-03 11:22:00,21.0,8.0,-100.00,East,93,2.0,4.0,58,0.00,,,-99.99,,2013-02-03 11:22:00,
2013-02-03 11:32:00,19.0,8.0,-100.00,NE,55,4.0,6.0,62,0.00,,,-99.99,,2013-02-03 11:32:00,
2013-02-03 11:41:00,18.0,8.0,-100.00,ENE,76,5.0,7.0,65,0.00,,,-99.99,,2013-02-03 11:41:00,
2013-02-03 11:52:00,18.0,9.0,-100.00,NNE,27,4.0,7.0,67,0.00,,,-99.99,,2013-02-03 11:52:00,
2013-02-03 12:02:00,19.0,9.0,-100.00,NE,37,3.0,8.0,64,0.00,,,-99.99,,2013-02-03 12:02:00,
2013-02-03 12:11:00,20.0,9.0,-100.00,NE,41,3.0,8.0,61,0.00,,,-99.99,,2013-02-03 12:11:00,
2013-02-03 12:22:00,19.0,9.0,-100.00,ENE,58,3.0,6.0,63,0.00,,,-99.99,,2013-02-03 12:22:00,
2013-02-03 12:32:00,19.0,9.0,-100.00,NNE,20,2.0,5.0,63,0.00,,,-99.99,,2013-02-03 12:32:00,
2013-02-03 12:42:00,17.0,8.0,-100.00,NE,51,6.0,7.0,66,0.00,,,-99.99,,2013-02-03 12:42:00,
2013-02-03 12:52:00,17.0,9.0,-100.00,NNE,17,4.0,8.0,68,0.00,,,-99.99,,2013-02-03 12:52:00,
2013-02-03 13:03:00,17.0,9.0,-100.00,NNE,13,4.0,8.0,69,0.00,,,-99.99,,2013-02-03 13:03:00,
2013-02-03 13:11:00,17.0,9.0,-100.00,North,0,4.0,9.0,70,0.00,,,-99.99,,2013-02-03 13:11:00,
2013-02-03 13:21:00,17.0,9.0,-100.00,North,8,6.0,11.0,69,0.00,,,-99.99,,2013-02-03 13:21:00,
2013-02-03 13:32:00,17.0,9.0,-100.00,NNE,25,7.0,10.0,69,0.00,,,-99.99,,2013-02-03 13:32:00,
2013-02-03 13:42:00,16.0,8.0,-100.00,NE,40,6.0,11.0,71,0.00,,,-99.99,,2013-02-03 13:42:00,
2013-02-03 13:52:00,17.0,9.0,-100.00,NNW,339,3.0,5.0,71,0.00,,,-99.99,,2013-02-03 13:52:00,
2013-02-03 14:02:00,17.0,8.0,-100.00,North,3,3.0,6.0,69,0.00,,,-99.99,,2013-02-03 14:02:00,
2013-02-03 14:11:00,17.0,9.0,-100.00,North,7,3.0,6.0,70,0.00,,,-99.99,,2013-02-03 14:11:00,
2013-02-03 14:21:00,17.0,8.0,-100.00,West,281,3.0,7.0,67,0.00,,,-99.99,,2013-02-03 14:21:00,
2013-02-03 14:32:00,17.0,9.0,-100.00,NW,326,4.0,7.0,70,0.00,,,-99.99,,2013-02-03 14:32:00,
2013-02-03 14:42:00,17.0,8.0,-100.00,North,4,3.0,5.0,69,0.00,,,-99.99,,2013-02-03 14:42:00,
2013-02-03 14:52:00,18.0,9.0,-100.00,NNW,332,2.0,4.0,68,0.00,,,-99.99,,2013-02-03 14:52:00,
2013-02-03 15:03:00,18.0,9.0,-100.00,WNW,302,2.0,4.0,68,0.00,,,-99.99,,2013-02-03 15:03:00,
2013-02-03 15:11:00,19.0,9.0,-100.00,WNW,289,3.0,5.0,64,0.00,,,-99.99,,2013-02-03 15:11:00,
2013-02-03 15:22:00,19.0,9.0,-100.00,WNW,299,4.0,6.0,64,0.00,,,-99.99,,2013-02-03 15:22:00,
2013-02-03 15:32:00,20.0,9.0,-100.00,WNW,291,4.0,6.0,63,0.00,,,-99.99,,2013-02-03 15:32:00,
2013-02-03 15:41:00,20.0,9.0,-100.00,WNW,294,4.0,6.0,63,0.00,,,-99.99,,2013-02-03 15:41:00,
2013-02-03 15:51:00,22.0,10.0,-100.00,WNW,298,4.0,7.0,59,0.00,,,-99.99,,2013-02-03 15:51:00,
2013-02-03 16:02:00,23.0,11.0,-100.00,WNW,294,2.0,6.0,58,0.00,,,-99.99,,2013-02-03 16:02:00,
2013-02-03 16:11:00,24.0,11.0,-100.00,West,277,2.0,6.0,56,0.00,,,-99.99,,2013-02-03 16:11:00,
2013-02-03 16:22:00,26.0,10.0,-100.00,WNW,287,2.0,4.0,51,0.00,,,-99.99,,2013-02-03 16:22:00,
2013-02-03 16:32:00,26.0,9.0,-100.00,NW,320,2.0,4.0,48,0.00,,,-99.99,,2013-02-03 16:32:00,
2013-02-03 16:41:00,27.0,11.0,-100.00,NNW,333,1.0,3.0,49,0.00,,,-99.99,,2013-02-03 16:41:00,
2013-02-03 16:52:00,27.0,14.0,-100.00,NE,48,2.0,4.0,56,0.00,,,-99.99,,2013-02-03 16:52:00,
2013-02-03 17:02:00,28.0,15.0,-100.00,ENE,69,2.0,4.0,56,0.00,,,-99.99,,2013-02-03 17:02:00,
2013-02-03 17:11:00,30.0,13.0,-100.00,NE,54,2.0,5.0,48,0.00,,,-99.99,,2013-02-03 17:11:00,
2013-02-03 17:21:00,31.0,16.0,-100.00,ENE,61,3.0,9.0,53,0.00,,,-99.99,,2013-02-03 17:21:00,
2013-02-03 17:32:00,30.0,13.0,-100.00,NE,51,7.0,9.0,48,0.00,,,-99.99,,2013-02-03 17:32:00,
2013-02-03 17:42:00,31.0,13.0,-100.00,NE,45,6.0,7.0,46,0.00,,,-99.99,,2013-02-03 17:42:00,
2013-02-03 17:52:00,32.0,15.0,-100.00,ENE,61,6.0,8.0,49,0.00,,,-99.99,,2013-02-03 17:52:00,
2013-02-03 18:03:00,33.0,15.0,-100.00,ENE,61,6.0,7.0,47,0.00,,,-99.99,,2013-02-03 18:03:00,
2013-02-03 18:11:00,34.0,15.0,-100.00,NE,52,6.0,7.0,45,0.00,,,-99.99,,2013-02-03 18:11:00,
2013-02-03 18:23:00,37.0,10.0,-100.00,NE,42,6.0,7.0,32,0.00,,,-99.99,,2013-02-03 18:23:00,
2013-02-03 18:32:00,37.0,9.0,-100.00,NE,44,7.0,9.0,31,0.00,,,-99.99,,2013-02-03 18:32:00,
2013-02-03 18:42:00,37.0,6.0,-100.00,NE,40,7.0,9.0,26,0.00,,,-99.99,,2013-02-03 18:42:00,
2013-02-03 18:51:00,38.0,6.0,-100.00,NE,37,7.0,9.0,26,0.00,,,-99.99,,2013-02-03 18:51:00,
2013-02-03 19:02:00,38.0,10.0,-100.00,NE,42,6.0,7.0,30,0.00,,,-99.99,,2013-02-03 19:02:00,
2013-02-03 19:11:00,39.0,6.0,-100.00,NE,42,5.0,7.0,25,0.00,,,-99.99,,2013-02-03 19:11:00,
2013-02-03 19:22:00,39.0,4.0,-100.00,ENE,59,4.0,6.0,23,0.00,,,-99.99,,2013-02-03 19:22:00,
2013-02-03 19:32:00,39.0,6.0,-100.00,NE,55,4.0,7.0,24,0.00,,,-99.99,,2013-02-03 19:32:00,
2013-02-03 19:41:00,39.0,6.0,-100.00,ENE,64,5.0,7.0,24,0.00,,,-99.99,,2013-02-03 19:41:00,
2013-02-03 19:51:00,40.0,7.0,-100.00,East,85,3.0,6.0,25,0.00,,,-99.99,,2013-02-03 19:51:00,
2013-02-03 20:01:00,40.0,6.0,-100.00,ENE,76,5.0,7.0,24,0.00,,,-99.99,,2013-02-03 20:01:00,
2013-02-03 20:12:00,40.0,6.0,-100.00,ENE,65,4.0,7.0,24,0.00,,,-99.99,,2013-02-03 20:12:00,
2013-02-03 20:21:00,40.0,5.0,-100.00,ENE,73,5.0,9.0,23,0.00,,,-99.99,,2013-02-03 20:21:00,
2013-02-03 20:32:00,40.0,4.0,-100.00,ENE,73,6.0,7.0,22,0.00,,,-99.99,,2013-02-03 20:32:00,
2013-02-03 20:42:00,40.0,7.0,-100.00,East,83,6.0,9.0,25,0.00,,,-99.99,,2013-02-03 20:42:00,
2013-02-03 20:52:00,41.0,5.0,-100.00,East,80,6.0,9.0,22,0.00,,,-99.99,,2013-02-03 20:52:00,
2013-02-03 21:03:00,41.0,8.0,-100.00,ENE,75,7.0,9.0,25,0.00,,,-99.99,,2013-02-03 21:03:00,
2013-02-03 21:11:00,41.0,7.0,-100.00,East,82,6.0,9.0,24,0.00,,,-99.99,,2013-02-03 21:11:00,
2013-02-03 21:21:00,41.0,6.0,-100.00,East,82,6.0,9.0,23,0.00,,,-99.99,,2013-02-03 21:21:00,
2013-02-03 21:32:00,41.0,7.0,-100.00,East,92,5.0,10.0,24,0.00,,,-99.99,,2013-02-03 21:32:00,
2013-02-03 21:42:00,41.0,7.0,-100.00,ESE,107,6.0,11.0,23,0.00,,,-99.99,,2013-02-03 21:42:00,
2013-02-03 21:51:00,41.0,8.0,-100.00,ESE,107,10.0,14.0,25,0.00,,,-99.99,,2013-02-03 21:51:00,
2013-02-03 22:01:00,42.0,7.0,-100.00,ESE,107,8.0,12.0,23,0.00,,,-99.99,,2013-02-03 22:01:00,
2013-02-03 22:11:00,42.0,7.0,-100.00,ESE,107,7.0,12.0,23,0.00,,,-99.99,,2013-02-03 22:11:00,
2013-02-03 22:21:00,41.0,11.0,-100.00,ESE,107,4.0,6.0,29,0.00,,,-99.99,,2013-02-03 22:21:00,
2013-02-03 22:32:00,42.0,6.0,-100.00,ESE,107,2.0,6.0,22,0.00,,,-99.99,,2013-02-03 22:32:00,
2013-02-03 22:41:00,43.0,7.0,-100.00,ESE,107,4.0,9.0,22,0.00,,,-99.99,,2013-02-03 22:41:00,
2013-02-03 22:51:00,43.0,-1.0,-100.00,ESE,107,5.0,12.0,15,0.00,,,-99.99,,2013-02-03 22:51:00,
2013-02-03 23:01:00,42.0,-1.0,-100.00,ESE,107,11.0,20.0,16,0.00,,,-99.99,,2013-02-03 23:01:00,
2013-02-03 23:12:00,42.0,0.0,-100.00,ESE,107,10.0,20.0,16,0.00,,,-99.99,,2013-02-03 23:12:00,
2013-02-03 23:22:00,42.0,0.0,-100.00,ESE,107,7.0,12.0,17,0.00,,,-99.99,,2013-02-03 23:22:00,
2013-02-03 23:32:00,41.0,1.0,-100.00,ESE,107,9.0,14.0,18,0.00,,,-99.99,,2013-02-03 23:32:00,
2013-02-03 23:41:00,41.0,2.0,-100.00,ESE,107,7.0,14.0,20,0.00,,,-99.99,,2013-02-03 23:41:00,
2013-02-03 23:52:00,40.0,1.0,-100.00,NE,55,9.0,18.0,19,0.00,,,-99.99,,2013-02-03 23:52:00,